createdAt,value
2019-03-12T00:00:51.320Z,2.00
2019-03-12T00:03:19.997Z,1.97
2019-03-12T00:05:48.701Z,2.17
2019-03-12T00:08:17.361Z,1.83
2019-03-12T00:10:46.066Z,2.17
2019-03-12T00:13:14.782Z,2.30
2019-03-12T00:15:43.556Z,2.20
2019-03-12T00:18:12.200Z,1.90
2019-03-12T00:20:40.953Z,2.50
2019-03-12T00:23:09.679Z,2.07
2019-03-12T00:25:38.431Z,1.90
2019-03-12T00:28:07.011Z,1.90
2019-03-12T00:30:35.739Z,2.27
2019-03-12T00:33:04.455Z,2.07
2019-03-12T00:35:33.164Z,2.40
2019-03-12T00:38:01.891Z,2.10
2019-03-12T00:40:30.686Z,2.60
2019-03-12T00:42:59.411Z,2.57
2019-03-12T00:45:28.120Z,2.57
2019-03-12T00:47:56.811Z,2.10
2019-03-12T00:50:25.558Z,2.03
2019-03-12T00:52:54.228Z,2.30
2019-03-12T00:55:22.852Z,2.30
2019-03-12T00:57:51.551Z,2.70
2019-03-12T01:00:20.493Z,2.60
2019-03-12T01:02:49.250Z,2.80
2019-03-12T01:05:17.981Z,2.50
2019-03-12T01:07:46.634Z,2.23
2019-03-12T01:10:15.259Z,2.60
2019-03-12T01:12:44.120Z,2.67
2019-03-12T01:15:12.945Z,2.90
2019-03-12T01:17:41.611Z,3.00
2019-03-12T01:20:10.715Z,2.20
2019-03-12T01:22:39.480Z,2.40
2019-03-12T01:25:08.540Z,2.60
2019-03-12T01:27:37.193Z,2.60
2019-03-12T01:30:06.194Z,2.40
2019-03-12T01:32:34.824Z,2.83
2019-03-12T01:35:03.596Z,2.60
2019-03-12T01:37:32.215Z,2.50
2019-03-12T01:40:00.897Z,2.40
2019-03-12T01:42:29.551Z,3.20
2019-03-12T01:44:58.265Z,3.30
2019-03-12T01:47:26.909Z,2.63
2019-03-12T01:49:55.494Z,2.90
2019-03-12T01:52:24.213Z,2.60
2019-03-12T01:54:52.843Z,2.50
2019-03-12T01:57:21.589Z,2.70
2019-03-12T01:59:50.344Z,2.43
2019-03-12T02:02:19.027Z,2.80
2019-03-12T02:04:47.723Z,2.07
2019-03-12T02:07:16.377Z,2.80
2019-03-12T02:09:45.066Z,2.53
2019-03-12T02:12:13.909Z,2.53
2019-03-12T02:14:42.609Z,2.57
2019-03-12T02:17:11.263Z,2.40
2019-03-12T02:19:39.967Z,2.57
2019-03-12T02:22:08.650Z,2.63
2019-03-12T02:24:37.337Z,3.00
2019-03-12T02:27:06.053Z,2.60
2019-03-12T02:29:34.781Z,2.50
2019-03-12T02:32:04.152Z,2.70
2019-03-12T02:34:32.929Z,3.03
2019-03-12T02:37:01.578Z,3.10
2019-03-12T02:39:30.256Z,2.80
2019-03-12T02:41:58.992Z,2.53
2019-03-12T02:44:27.776Z,2.47
2019-03-12T02:46:56.445Z,2.70
2019-03-12T02:49:25.088Z,2.90
2019-03-12T02:51:53.871Z,2.50
2019-03-12T02:54:22.514Z,3.20
2019-03-12T02:56:51.209Z,2.70
2019-03-12T02:59:19.886Z,2.60
2019-03-12T03:01:48.564Z,2.50
2019-03-12T03:04:17.248Z,2.87
2019-03-12T03:06:50.392Z,2.90
2019-03-12T03:09:19.074Z,2.87
2019-03-12T03:11:50.891Z,2.70
2019-03-12T03:14:28.554Z,2.50
2019-03-12T03:16:57.237Z,2.67
2019-03-12T03:19:25.941Z,2.60
2019-03-12T03:21:54.671Z,2.63
2019-03-12T03:24:23.340Z,2.97
2019-03-12T03:26:52.027Z,2.40
2019-03-12T03:29:20.702Z,2.90
2019-03-12T03:31:49.342Z,2.97
2019-03-12T03:34:18.044Z,3.17
2019-03-12T03:36:46.701Z,2.37
2019-03-12T03:39:15.340Z,2.77
2019-03-12T03:41:43.940Z,2.40
2019-03-12T03:44:12.575Z,2.80
2019-03-12T03:46:41.162Z,3.10
2019-03-12T03:49:09.827Z,2.40
2019-03-12T03:51:38.420Z,2.50
2019-03-12T03:54:07.071Z,2.60
2019-03-12T03:56:35.747Z,2.30
2019-03-12T03:59:04.424Z,2.50
2019-03-12T04:01:33.192Z,2.80
2019-03-12T04:04:01.871Z,2.33
2019-03-12T04:06:33.803Z,2.60
2019-03-12T04:09:00.925Z,2.40
2019-03-12T04:11:29.586Z,2.37
2019-03-12T04:13:58.130Z,2.80
2019-03-12T04:16:26.840Z,2.67
2019-03-12T04:18:55.651Z,3.00
2019-03-12T04:21:24.517Z,2.43
2019-03-12T04:23:53.253Z,2.40
2019-03-12T04:26:22.042Z,2.33
2019-03-12T04:28:50.696Z,2.23
2019-03-12T04:31:19.441Z,2.60
2019-03-12T04:34:16.178Z,2.57
2019-03-12T04:36:44.945Z,2.40
2019-03-12T04:39:13.643Z,2.90
2019-03-12T04:41:42.284Z,2.50
2019-03-12T04:44:11.094Z,2.57
2019-03-12T04:46:39.782Z,2.97
2019-03-12T04:49:08.378Z,2.50
2019-03-12T04:51:37.066Z,2.73
2019-03-12T04:54:05.727Z,2.30
2019-03-12T04:56:34.409Z,2.07
2019-03-12T04:59:03.075Z,2.40
2019-03-12T05:01:31.754Z,2.80
2019-03-12T05:04:00.482Z,2.30
2019-03-12T05:06:29.251Z,2.03
2019-03-12T05:08:58.025Z,3.03
2019-03-12T05:11:26.719Z,2.83
2019-03-12T05:14:32.382Z,2.50
2019-03-12T05:17:07.709Z,2.20
2019-03-12T05:19:36.845Z,2.50
2019-03-12T05:22:05.573Z,2.60
2019-03-12T05:24:34.293Z,2.40
2019-03-12T05:27:03.072Z,2.53
2019-03-12T05:29:31.633Z,3.43
2019-03-12T05:32:00.340Z,2.27
2019-03-12T05:34:28.915Z,3.20
2019-03-12T05:36:57.587Z,2.50
2019-03-12T05:39:26.195Z,2.77
2019-03-12T05:41:54.887Z,2.30
2019-03-12T05:44:23.639Z,3.20
2019-03-12T05:46:52.319Z,2.77
2019-03-12T05:49:21.041Z,2.97
2019-03-12T05:51:49.776Z,2.83
2019-03-12T05:54:18.552Z,3.47
2019-03-12T05:56:47.434Z,2.90
2019-03-12T05:59:16.130Z,3.07
2019-03-12T06:01:46.732Z,2.90
2019-03-12T06:04:15.256Z,3.20
2019-03-12T06:06:43.962Z,2.63
2019-03-12T06:09:12.658Z,3.00
2019-03-12T06:11:41.354Z,3.30
2019-03-12T06:14:09.958Z,3.07
2019-03-12T06:16:38.603Z,2.77
2019-03-12T06:19:07.317Z,2.97
2019-03-12T06:21:36.080Z,3.37
2019-03-12T06:24:04.792Z,2.80
2019-03-12T06:26:33.451Z,3.53
2019-03-12T06:29:02.163Z,3.40
2019-03-12T06:31:53.232Z,2.57
2019-03-12T06:34:29.033Z,3.37
2019-03-12T06:37:15.346Z,2.97
2019-03-12T06:40:00.888Z,2.87
2019-03-12T06:42:51.445Z,2.60
2019-03-12T06:45:48.348Z,3.20
2019-03-12T06:48:26.687Z,3.07
2019-03-12T06:51:05.009Z,3.17
2019-03-12T06:53:59.851Z,2.67
2019-03-12T06:56:47.680Z,3.00
2019-03-12T06:59:35.566Z,2.67
2019-03-12T07:02:17.006Z,2.77
2019-03-12T07:05:02.242Z,3.70
2019-03-12T07:07:47.986Z,4.10
2019-03-12T07:10:41.595Z,3.30
2019-03-12T07:13:35.377Z,3.33
2019-03-12T07:16:24.373Z,3.20
2019-03-12T07:19:05.438Z,3.13
2019-03-12T07:22:05.107Z,2.67
2019-03-12T07:24:55.868Z,2.63
2019-03-12T07:27:46.695Z,2.33
2019-03-12T07:30:29.012Z,2.93
2019-03-12T07:33:11.928Z,2.80
2019-03-12T07:36:14.566Z,2.80
2019-03-12T07:38:54.820Z,2.67
2019-03-12T07:41:33.542Z,2.47
2019-03-12T07:44:08.431Z,2.70
2019-03-12T07:46:59.355Z,2.40
2019-03-12T07:49:45.855Z,3.13
2019-03-12T07:52:30.938Z,2.00
2019-03-12T07:55:29.829Z,2.40
2019-03-12T07:58:35.098Z,2.20
2019-03-12T08:01:18.882Z,2.10
2019-03-12T08:04:24.599Z,2.40
2019-03-12T08:07:15.486Z,2.37
2019-03-12T08:09:55.165Z,2.47
2019-03-12T08:12:57.789Z,2.20
2019-03-12T08:15:54.347Z,2.83
2019-03-12T08:18:51.317Z,3.23
2019-03-12T08:21:39.233Z,3.93
2019-03-12T08:24:25.513Z,2.90
2019-03-12T08:27:13.258Z,2.50
2019-03-12T08:30:00.980Z,2.77
2019-03-12T08:33:03.944Z,2.90
2019-03-12T08:35:40.105Z,2.80
2019-03-12T08:38:27.821Z,2.53
2019-03-12T08:41:18.570Z,2.83
2019-03-12T08:44:05.168Z,2.40
2019-03-12T08:46:55.690Z,2.70
2019-03-12T08:49:40.514Z,2.43
2019-03-12T08:52:26.095Z,2.73
2019-03-12T08:55:20.033Z,2.43
2019-03-12T08:57:59.711Z,2.40
2019-03-12T09:00:47.171Z,2.33
2019-03-12T09:03:33.381Z,2.70
2019-03-12T09:06:19.815Z,2.33
2019-03-12T09:08:58.337Z,2.50
2019-03-12T09:11:36.436Z,2.90
2019-03-12T09:14:24.152Z,2.40
2019-03-12T09:17:17.792Z,2.10
2019-03-12T09:20:17.375Z,2.67
2019-03-12T09:22:55.437Z,3.30
2019-03-12T09:25:52.386Z,2.40
2019-03-12T09:28:46.159Z,2.47
2019-03-12T09:31:28.337Z,2.70
2019-03-12T09:34:22.296Z,2.60
2019-03-12T09:37:02.888Z,2.43
2019-03-12T09:39:41.564Z,2.60
2019-03-12T09:42:38.410Z,2.40
2019-03-12T09:45:14.181Z,2.83
2019-03-12T09:48:00.657Z,2.80
2019-03-12T09:50:36.697Z,2.57
2019-03-12T09:53:20.269Z,2.73
2019-03-12T09:56:06.425Z,2.40
2019-03-12T09:59:00.163Z,2.33
2019-03-12T10:01:47.863Z,2.40
2019-03-12T10:04:34.095Z,2.67
2019-03-12T10:07:24.889Z,2.50
2019-03-12T10:10:12.583Z,2.63
2019-03-12T10:12:55.641Z,2.40
2019-03-12T10:15:39.751Z,2.50
2019-03-12T10:18:42.670Z,2.57
2019-03-12T10:21:28.659Z,2.27
2019-03-12T10:24:15.853Z,2.57
2019-03-12T10:26:55.113Z,2.10
2019-03-12T10:29:41.566Z,2.10
2019-03-12T10:32:15.477Z,2.20
2019-03-12T10:35:00.961Z,2.30
2019-03-12T10:37:34.913Z,1.90
2019-03-12T10:40:25.837Z,1.60
2019-03-12T10:43:15.989Z,1.67
2019-03-12T10:45:53.164Z,1.60
2019-03-12T10:48:21.889Z,1.93
2019-03-12T10:50:50.602Z,1.57
2019-03-12T10:53:19.307Z,1.80
2019-03-12T10:55:47.994Z,1.70
2019-03-12T10:58:16.710Z,1.77
2019-03-12T11:00:45.683Z,1.70
2019-03-12T11:03:14.245Z,1.53
2019-03-12T11:05:46.287Z,1.73
2019-03-12T11:08:13.333Z,1.97
2019-03-12T11:10:42.117Z,1.73
2019-03-12T11:13:10.796Z,1.70
2019-03-12T11:15:39.481Z,2.40
2019-03-12T11:18:08.251Z,1.37
2019-03-12T11:20:36.920Z,2.00
2019-03-12T11:23:05.578Z,2.53
2019-03-12T11:25:34.365Z,1.53
2019-03-12T11:28:03.105Z,1.70
2019-03-12T11:30:31.821Z,1.73
2019-03-12T11:33:00.575Z,1.80
2019-03-12T11:35:38.642Z,1.80
2019-03-12T11:37:59.749Z,1.80
2019-03-12T11:40:31.926Z,1.80
2019-03-12T11:42:59.056Z,1.80
2019-03-12T11:45:36.176Z,1.83
2019-03-12T11:47:58.283Z,1.90
2019-03-12T11:50:27.158Z,1.43
2019-03-12T11:52:59.098Z,1.43
2019-03-12T11:55:26.313Z,1.70
2019-03-12T11:57:55.000Z,2.10
2019-03-12T12:00:27.660Z,1.60
2019-03-12T12:03:00.331Z,1.60
2019-03-12T12:05:27.172Z,1.80
2019-03-12T12:07:55.842Z,1.87
2019-03-12T12:10:24.635Z,1.60
2019-03-12T12:12:53.373Z,1.67
2019-03-12T12:15:21.975Z,1.70
2019-03-12T12:17:50.712Z,1.80
2019-03-12T12:20:28.918Z,2.00
2019-03-12T12:22:49.815Z,1.83
2019-03-12T12:25:18.555Z,1.50
2019-03-12T12:27:47.337Z,1.10
2019-03-12T12:30:16.699Z,1.70
2019-03-12T12:32:45.451Z,1.60
2019-03-12T12:35:14.187Z,1.70
2019-03-12T12:37:42.957Z,1.47
2019-03-12T12:40:12.684Z,1.40
2019-03-12T12:42:41.372Z,1.73
2019-03-12T12:45:11.381Z,1.67
2019-03-12T12:47:40.157Z,1.33
2019-03-12T12:50:09.030Z,1.60
2019-03-12T12:52:37.725Z,1.33
2019-03-12T12:55:06.672Z,1.50
2019-03-12T12:57:35.529Z,1.50
2019-03-12T13:00:04.977Z,1.97
2019-03-12T13:02:33.613Z,1.50
2019-03-12T13:05:02.400Z,1.70
2019-03-12T13:07:31.025Z,1.30
2019-03-12T13:09:59.697Z,1.43
2019-03-12T13:12:28.347Z,1.70
2019-03-12T13:14:57.063Z,1.50
2019-03-12T13:17:25.745Z,1.70
2019-03-12T13:19:54.520Z,1.73
2019-03-12T13:22:23.364Z,1.73
2019-03-12T13:24:52.054Z,1.87
2019-03-12T13:27:20.875Z,1.70
2019-03-12T13:29:49.687Z,1.30
2019-03-12T13:32:18.458Z,1.70
2019-03-12T13:34:47.287Z,1.37
2019-03-12T13:37:15.962Z,1.43
2019-03-12T13:39:44.645Z,1.70
2019-03-12T13:42:13.323Z,1.70
2019-03-12T13:44:41.967Z,1.60
2019-03-12T13:47:10.634Z,1.60
2019-03-12T13:49:39.281Z,1.50
2019-03-12T13:52:08.082Z,1.67
2019-03-12T13:54:36.725Z,1.60
2019-03-12T13:57:05.566Z,1.40
2019-03-12T13:59:34.346Z,1.37
2019-03-12T14:02:03.059Z,1.60
2019-03-12T14:04:31.721Z,1.47
2019-03-12T14:07:00.432Z,1.60
2019-03-12T14:09:29.220Z,1.50
2019-03-12T14:11:59.173Z,1.77
2019-03-12T14:14:28.182Z,1.57
2019-03-12T14:16:56.861Z,1.77
2019-03-12T14:19:25.805Z,1.50
2019-03-12T14:21:54.583Z,1.20
2019-03-12T14:24:23.163Z,1.60
2019-03-12T14:26:51.821Z,1.40
2019-03-12T14:29:23.411Z,1.47
2019-03-12T14:31:52.090Z,1.43
2019-03-12T14:34:20.782Z,1.10
2019-03-12T14:36:49.460Z,1.60
2019-03-12T14:39:18.726Z,1.30
2019-03-12T14:41:49.817Z,1.60
2019-03-12T14:44:18.492Z,1.80
2019-03-12T14:46:47.172Z,2.23
2019-03-12T14:49:15.899Z,1.70
2019-03-12T14:51:47.498Z,1.67
2019-03-12T14:54:16.130Z,1.20
2019-03-12T14:56:44.831Z,1.40
2019-03-12T14:59:13.505Z,1.40
2019-03-12T15:01:42.077Z,1.30
2019-03-12T15:04:10.885Z,1.33
2019-03-12T15:06:39.669Z,1.57
2019-03-12T15:09:09.250Z,1.40
2019-03-12T15:11:37.948Z,1.10
2019-03-12T15:14:06.657Z,1.40
2019-03-12T15:16:35.372Z,1.47
2019-03-12T15:19:04.071Z,1.30
2019-03-12T15:21:32.889Z,1.17
2019-03-12T15:24:01.568Z,1.33
2019-03-12T15:26:30.233Z,1.20
2019-03-12T15:28:58.964Z,1.37
2019-03-12T15:31:27.627Z,1.27
2019-03-12T15:33:56.389Z,1.07
2019-03-12T15:36:25.204Z,1.23
2019-03-12T15:38:54.017Z,1.20
2019-03-12T15:41:22.672Z,1.20
2019-03-12T15:43:51.351Z,0.93
2019-03-12T15:46:20.019Z,1.00
2019-03-12T15:48:48.746Z,1.30
2019-03-12T15:51:17.433Z,1.43
2019-03-12T15:53:46.087Z,1.23
2019-03-12T15:56:14.710Z,1.20
2019-03-12T15:58:43.364Z,1.00
2019-03-12T16:01:12.160Z,1.10
2019-03-12T16:03:42.026Z,1.10
2019-03-12T16:06:10.794Z,0.93
2019-03-12T16:08:39.426Z,1.27
2019-03-12T16:11:08.145Z,1.20
2019-03-12T16:13:36.877Z,1.10
2019-03-12T16:16:05.604Z,1.20
2019-03-12T16:18:34.276Z,1.10
2019-03-12T16:21:02.878Z,1.47
2019-03-12T16:23:31.585Z,1.30
2019-03-12T16:26:00.355Z,1.37
2019-03-12T16:28:29.091Z,1.20
2019-03-12T16:30:57.727Z,0.90
2019-03-12T16:33:26.574Z,1.07
2019-03-12T16:35:55.263Z,1.50
2019-03-12T16:38:24.042Z,1.37
2019-03-12T16:40:52.780Z,1.17
2019-03-12T16:43:22.338Z,1.30
2019-03-12T16:45:51.049Z,1.20
2019-03-12T16:48:19.795Z,1.23
2019-03-12T16:50:48.479Z,1.40
2019-03-12T16:53:17.139Z,1.70
2019-03-12T16:55:45.825Z,1.70
2019-03-12T16:58:14.509Z,1.37
2019-03-12T17:00:43.162Z,1.40
2019-03-12T17:03:11.901Z,1.77
2019-03-12T17:05:40.619Z,1.40
2019-03-12T17:08:09.317Z,1.87
2019-03-12T17:10:38.020Z,1.60
2019-03-12T17:13:06.759Z,1.53
2019-03-12T17:15:35.529Z,1.87
2019-03-12T17:18:04.380Z,1.67
2019-03-12T17:20:33.133Z,1.60
2019-03-12T17:23:01.767Z,1.70
2019-03-12T17:25:30.461Z,1.27
2019-03-12T17:27:59.447Z,1.30
2019-03-12T17:30:28.271Z,1.70
2019-03-12T17:32:56.987Z,1.50
2019-03-12T17:35:26.117Z,1.83
2019-03-12T17:37:54.874Z,1.53
2019-03-12T17:40:23.633Z,1.70
2019-03-12T17:42:52.344Z,1.73
2019-03-12T17:45:21.102Z,1.90
2019-03-12T17:47:49.872Z,1.70
2019-03-12T17:50:18.576Z,1.90
2019-03-12T17:52:47.275Z,2.10
2019-03-12T17:55:16.082Z,1.93
2019-03-12T17:57:44.863Z,2.20
2019-03-12T18:00:15.162Z,2.10
2019-03-12T18:02:43.836Z,2.03
2019-03-12T18:05:13.538Z,1.80
2019-03-12T18:07:42.260Z,1.90
2019-03-12T18:10:11.338Z,1.87
2019-03-12T18:12:39.904Z,1.70
2019-03-12T18:15:09.646Z,1.80
2019-03-12T18:17:38.309Z,2.33
2019-03-12T18:20:08.184Z,2.20
2019-03-12T18:22:38.996Z,1.97
2019-03-12T18:25:08.856Z,1.97
2019-03-12T18:27:37.598Z,2.13
2019-03-12T18:30:07.206Z,2.00
2019-03-12T18:32:35.912Z,2.30
2019-03-12T18:35:04.793Z,2.47
2019-03-12T18:37:33.565Z,2.10
2019-03-12T18:40:02.270Z,1.97
2019-03-12T18:42:31.035Z,2.10
2019-03-12T18:44:59.807Z,1.90
2019-03-12T18:47:28.438Z,2.50
2019-03-12T18:49:58.748Z,1.83
2019-03-12T18:52:27.532Z,2.10
2019-03-12T18:54:56.250Z,2.03
2019-03-12T18:57:24.981Z,2.33
2019-03-12T18:59:53.691Z,2.20
2019-03-12T19:02:22.359Z,2.23
2019-03-12T19:04:51.052Z,2.43
2019-03-12T19:07:19.762Z,2.27
2019-03-12T19:09:48.437Z,1.97
2019-03-12T19:12:17.205Z,2.10
2019-03-12T19:14:45.881Z,2.13
2019-03-12T19:17:14.565Z,2.27
2019-03-12T19:19:43.265Z,2.40
2019-03-12T19:22:11.979Z,2.03
2019-03-12T19:24:40.677Z,2.00
2019-03-12T19:27:09.360Z,1.90
2019-03-12T19:29:38.101Z,1.90
2019-03-12T19:32:23.830Z,2.20
2019-03-12T19:34:52.689Z,2.20
2019-03-12T19:37:21.453Z,2.13
2019-03-12T19:39:50.536Z,2.90
2019-03-12T19:42:19.274Z,1.97
2019-03-12T19:44:47.969Z,1.83
2019-03-12T19:47:16.767Z,2.47
2019-03-12T19:49:45.481Z,2.17
2019-03-12T19:52:14.139Z,2.43
2019-03-12T19:54:42.824Z,2.30
2019-03-12T19:57:11.534Z,2.63
2019-03-12T19:59:40.214Z,2.30
2019-03-12T20:02:16.202Z,2.33
2019-03-12T20:04:47.067Z,2.20
2019-03-12T20:07:10.243Z,2.50
2019-03-12T20:09:45.990Z,2.60
2019-03-12T20:12:32.448Z,2.63
2019-03-12T20:15:20.307Z,2.80
2019-03-12T20:18:03.357Z,2.63
2019-03-12T20:21:06.336Z,2.70
2019-03-12T20:24:12.138Z,3.07
2019-03-12T20:27:05.983Z,3.13
2019-03-12T20:30:02.640Z,3.03
2019-03-12T20:32:59.322Z,2.70
2019-03-12T20:35:45.637Z,2.77
2019-03-12T20:38:32.006Z,2.63
2019-03-12T20:41:18.462Z,2.70
2019-03-12T20:44:05.053Z,2.57
2019-03-12T20:46:58.898Z,2.73
2019-03-12T20:49:55.779Z,2.30
2019-03-12T20:52:41.974Z,2.00
2019-03-12T20:55:32.756Z,2.10
2019-03-12T20:58:18.948Z,2.20
2019-03-12T21:01:06.694Z,2.37
2019-03-12T21:03:53.217Z,2.00
2019-03-12T21:06:39.363Z,2.17
2019-03-12T21:09:25.789Z,1.97
2019-03-12T21:12:13.483Z,2.23
2019-03-12T21:15:13.403Z,1.70
2019-03-12T21:17:52.550Z,1.73
2019-03-12T21:20:43.126Z,1.83
2019-03-12T21:23:39.876Z,2.10
2019-03-12T21:26:36.591Z,1.77
2019-03-12T21:29:16.496Z,2.00
2019-03-12T21:31:45.186Z,1.90
2019-03-12T21:34:13.869Z,1.93
2019-03-12T21:36:42.647Z,2.10
2019-03-12T21:39:11.923Z,2.23
2019-03-12T21:41:40.659Z,2.30
2019-03-12T21:44:09.463Z,1.80
2019-03-12T21:46:38.222Z,1.93
2019-03-12T21:49:07.426Z,2.00
2019-03-12T21:51:36.224Z,2.03
2019-03-12T21:54:04.929Z,2.20
2019-03-12T21:56:33.593Z,1.73
2019-03-12T21:59:02.382Z,2.10
2019-03-12T22:01:31.157Z,1.80
2019-03-12T22:03:59.814Z,2.10
2019-03-12T22:06:28.531Z,2.47
2019-03-12T22:08:57.229Z,2.10
2019-03-12T22:11:25.922Z,2.80
2019-03-12T22:13:56.818Z,2.20
2019-03-12T22:16:25.459Z,2.00
2019-03-12T22:18:54.150Z,2.20
2019-03-12T22:21:29.486Z,1.97
2019-03-12T22:24:04.114Z,2.00
2019-03-12T22:26:32.723Z,1.87
2019-03-12T22:29:01.441Z,1.70
2019-03-12T22:31:30.169Z,2.07
2019-03-12T22:33:58.858Z,2.03
2019-03-12T22:36:27.597Z,2.17
2019-03-12T22:38:56.302Z,1.90
2019-03-12T22:41:25.085Z,1.80
2019-03-12T22:43:53.907Z,2.10
2019-03-12T22:46:22.609Z,1.90
2019-03-12T22:48:51.344Z,1.57
2019-03-12T22:51:20.006Z,2.00
2019-03-12T22:53:48.698Z,2.33
2019-03-12T22:56:17.453Z,1.93
2019-03-12T22:58:46.102Z,2.30
2019-03-12T23:01:14.852Z,2.17
2019-03-12T23:03:43.573Z,2.27
2019-03-12T23:06:12.266Z,2.43
2019-03-12T23:08:40.902Z,2.27
2019-03-12T23:11:09.596Z,2.20
2019-03-12T23:13:38.337Z,1.73
2019-03-12T23:16:07.025Z,2.00
2019-03-12T23:18:35.698Z,2.07
2019-03-12T23:21:04.387Z,2.07
2019-03-12T23:23:33.026Z,2.00
2019-03-12T23:26:01.776Z,1.93
2019-03-12T23:28:30.514Z,2.00
2019-03-12T23:30:59.198Z,2.00
2019-03-12T23:33:27.890Z,2.30
2019-03-12T23:35:56.532Z,1.80
2019-03-12T23:38:25.198Z,1.50
2019-03-12T23:40:53.880Z,1.80
2019-03-12T23:43:22.570Z,1.97
2019-03-12T23:45:51.204Z,1.80
2019-03-12T23:48:19.865Z,1.80
2019-03-12T23:50:48.450Z,1.70
2019-03-12T23:53:17.083Z,1.93
2019-03-12T23:55:45.691Z,1.93
2019-03-12T23:58:14.484Z,1.80
